Tiempo atmosférico en la estación meteorológica de Palacios De La Sierra, Burgos (1080 m.)



Fecha
DESCASC
Temp. máxima en grados centígrados (hora)
DESCASC
Temp. mínima en grados centígrados (hora)
DESCASC
Temp. media en grados centígrados
DESCASC
Racha de viento máxima en m/sg (hora)
DESCASC
Velocidad máxima media en intervalos de 10 minutos(hora)
DESCASC
Precipitaciones diarias en mm
DESCASC
Precipitaciones de 00:00 a 06:00 en mm
DESCASC
Precipitaciones de 06:00 a 12:00 en mm
DESCASC
Precipitaciones de 12:00 a 18:00 en mm
DESCASC
Precipitaciones de 18:00 a 24:00 en mm
DESCASC
08-12-2019 6.3 (14:40) -2.7 (06:30) 1.8 -- (--) -- (--) 2.4 0 0 1.8 0.6
07-12-2019 11.6 (16:00) -2.9 (07:50) 4.4 5.56 (14:00) 3.61 (14:00) 0 0 0 0 0
06-12-2019 11.6 (15:10) -2 (09:00) 4.8 6.67 (16:10) 4.17 (08:50) 0 0 0 0 0
05-12-2019 9.7 (14:50) -0.2 (00:00) 4.7 9.44 (12:20) 6.39 (12:20) 0 0 0 0 0
04-12-2019 10.6 (16:00) 0.4 (00:00) 5.5 -- (--) -- (--) 0 0 0 0 0
03-12-2019 7.7 (14:50) -6.5 (-00:0) 0.6 10 (16:30) 5 (16:30) 0 0 0 0 0
02-12-2019 8.1 (14:10) -2.5 (-00:0) 2.8 15.83 (07:10) 7.22 (11:40) 0 0 0 0 0
01-12-2019 8.9 (14:20) 1.8 (00:00) 5.3 6.94 (19:30) 4.72 (19:20) 1.6 0 0.2 1.4 0
30-11-2019 10.8 (15:10) 4.2 (00:00) 7.5 15 (15:30) 7.22 (17:50) 12.8 1.4 0.4 10.2 0.8
29-11-2019 13 (16:00) 5.6 (00:00) 9.3 11.39 (00:40) 5.56 (01:10) 0.2 0.2 0 0 0
28-11-2019 9.5 (14:10) 6.6 (00:00) 8 14.44 (08:20) 6.94 (14:30) 3.8 1 0.2 0 2.6
27-11-2019 -- (--) -- (--) -- -- (--) -- (--) -- -- -- 1 1.4
26-11-2019 -- (--) -- (--) -- -- (--) -- (--) -- -- -- -- --
25-11-2019 -- (--) -- (--) -- -- (--) -- (--) -- -- -- -- --
24-11-2019 -- (--) -- (--) -- -- (--) -- (--) -- -- -- -- --
23-11-2019 -- (--) -- (--) -- -- (--) -- (--) -- -- -- -- --
22-11-2019 -- (--) -- (--) -- -- (--) -- (--) -- -- -- -- --
21-11-2019 -- (--) -- (--) -- -- (--) -- (--) -- -- -- -- --
20-11-2019 -- (--) -- (--) -- -- (--) -- (--) -- -- -- -- --
19-11-2019 -- (--) -- (--) -- -- (--) -- (--) -- -- -- -- --
18-11-2019 -- (--) -- (--) -- -- (--) -- (--) -- -- -- -- --
17-11-2019 -- (--) -- (--) -- -- (--) -- (--) -- -- -- -- --
16-11-2019 -- (--) -- (--) -- -- (--) -- (--) -- -- -- -- --
15-11-2019 -- (--) -- (--) -- -- (--) -- (--) -- 0.6 -- -- --
14-11-2019 -- (--) -- (--) -- 17.5 (04:10) 7.78 (04:10) 11 7.8 0.6 1.4 1.2
13-11-2019 -- (--) -- (--) -- -- (--) -- (--) 14.2 14.2 0 0 0
12-11-2019 -- (--) -- (--) -- 10 (15:50) 5.56 (13:40) 11.6 0 0 0.2 11.4
11-11-2019 -- (--) -- (--) -- 16.67 (15:20) 9.17 (15:20) 1 0.2 0.4 0.4 0

Gráficas

Temp. máximas Temp. mínimas Temp. medias Precipitaciones Rachas de viento máximas Velocidades máximas media en intervalos de 10 minutos

Datos horarios

Fecha y hora oficial Temperatura (ºC) Velocidad del viento (km/h) Dirección del viento Racha (km/h) Dirección de racha Precipitación (mm) Presión (hPa) Tendencia (hPa) Humedad (%)
2019-12-10 23:00:00 0.8 4 Sudeste 15 Este 0 900.9 -0.8 87
2019-12-10 22:00:00 1.5 7 Sur 12 Sur 0 901.3 -0.3 86
2019-12-10 21:00:00 2.1 2 Sudoeste 13 Sur 0 901.7 -0.1 82
2019-12-10 20:00:00 3.2 0 Calma 4 Nordeste 0 901.7 -0.4 79
2019-12-10 19:00:00 5.2 3 Noroeste 13 Oeste 0 901.6 -0.7 74
2019-12-10 18:00:00 6.6 4 Oeste 9 Oeste 0 901.8 -0.8 66
2019-12-10 17:00:00 8.3 6 Oeste 12 Oeste 0 902.1 -1.2 60
2019-12-10 16:00:00 8.9 7 Noroeste -- -- 0 902.3 -2 59
2019-12-10 15:00:00 9 10 Noroeste 18 Noroeste 0 902.6 -2.5 53
2019-12-10 14:00:00 9.3 10 Oeste -- -- 0 903.3 -2.1 54
2019-12-10 13:00:00 7.1 10 Oeste 27 Oeste 0 904.3 -0.9 63
2019-12-10 12:00:00 5.4 15 Noroeste 27 Noroeste 0 905.1 -0.1 73
2019-12-10 11:00:00 2.3 4 Nordeste 12 Nordeste 0 905.4 0.2 80
2019-12-10 10:00:00 -1.8 0 Calma 5 Nordeste 0 905.2 0.2 90
2019-12-10 09:00:00 -4.7 0 Calma 8 Sur 0 905.2 0.1 91
2019-12-10 08:00:00 -4.1 0 Calma -- -- 0 905.2 0.2 92
2019-12-10 07:00:00 -4.1 0 Calma -- -- 0 905 -0.8 92
2019-12-10 06:00:00 -3.7 -- -- -- -- 0 905.1 -0.8 92
2019-12-10 05:00:00 -3.1 2 Nordeste 8 Este 0 905 -1.1 92
2019-12-10 04:00:00 -2.6 2 Sudeste 16 Sur 0 905.8 -0.2 91
2019-12-10 03:00:00 -1.9 -- -- -- -- 0 905.9 0.3 87
2019-12-10 02:00:00 0 13 Sur -- -- 0 906.1 0.5 85
2019-12-10 01:00:00 2.3 8 Noroeste -- -- 0 906 0.5 76
2019-12-10 00:00:00 2.7 5 Este 32 Oeste 0 905.6 -0.1 73
2019-12-09 23:00:00 4.2 18 Noroeste 37 Oeste 0 905.6 -0.2 68
2019-12-09 22:00:00 4.5 26 Oeste 42 Noroeste 0 905.5 0 68
2019-12-09 21:00:00 4.9 20 Oeste 41 Oeste 0 905.7 0.7 65
2019-12-09 20:00:00 5 18 Noroeste 38 Oeste 0 905.8 1.2 64
2019-12-09 19:00:00 5 9 Oeste 29 Noroeste 0 905.5 1.2 65
2019-12-09 18:00:00 5.8 14 Oeste 34 Oeste 0 905 0.8 64
2019-12-09 17:00:00 7.1 15 Noroeste 42 Noroeste 0 904.6 0.6 62
2019-12-09 16:00:00 8.5 23 Noroeste 43 Noroeste 0 904.3 -0.1 55
2019-12-09 15:00:00 8 22 Oeste 39 Noroeste 0 904.2 -0.4 60
2019-12-09 14:00:00 8.5 19 Oeste 44 Noroeste 0 904 -0.5 58
2019-12-09 13:00:00 7.7 16 Oeste 37 Oeste 0 904.4 0.1 68
2019-12-09 12:00:00 6.1 17 Oeste 33 Oeste 0 904.6 0.7 67
2019-12-09 11:00:00 4.5 19 Oeste 41 Oeste 0 904.5 0.9 69
2019-12-09 10:00:00 2.6 16 Oeste 28 Noroeste 0 904.3 0.9 86
2019-12-09 09:00:00 1.7 9 Noroeste 16 Noroeste 0 903.9 0.5 92
2019-12-09 08:00:00 2 9 Noroeste 24 Noroeste 0 903.6 0.4 90
2019-12-09 07:00:00 2.6 7 Noroeste 18 Noroeste 0 903.4 0.2 90
2019-12-09 06:00:00 2.6 8 Noroeste 18 Noroeste 0 903.4 0.6 91
2019-12-09 05:00:00 3.2 6 Noroeste 26 Oeste 0 903.2 0.9 90
2019-12-09 04:00:00 3.6 11 Oeste 22 Noroeste 0 903.2 0.4 89
2019-12-09 03:00:00 4.2 10 Oeste 24 Oeste 0 902.8 0 87
2019-12-09 02:00:00 4.9 12 Oeste 23 Oeste 0 902.3 0.3 92
2019-12-09 01:00:00 4.9 5 Noroeste 30 Noroeste 0 902.8 0.7 93
2019-12-09 00:00:00 5.2 8 Noroeste 15 Oeste 0 902.8 1 93
2019-12-08 23:00:00 5.3 10 Noroeste 21 Noroeste 0 902 0.6 93
2019-12-08 22:00:00 5.5 12 Oeste 29 Oeste 0 902.1 1.2 93
2019-12-08 21:00:00 5.6 12 Oeste 22 Noroeste 0 901.8 0.9 93
2019-12-08 20:00:00 5.6 12 Oeste 20 Oeste 0 901.4 1 93
2019-12-08 19:00:00 5.6 5 Oeste 12 Noroeste 0.6 900.9 0.7 92
2019-12-08 18:00:00 5.6 4 Noroeste 8 Noroeste 0.4 900.9 0.8 92
2019-12-08 17:00:00 5.9 3 Oeste 10 Noroeste 0.6 900.4 -0.1 92
2019-12-08 16:00:00 5.9 6 Oeste 10 Noroeste 0 900.2 -0.8 91
2019-12-08 15:00:00 6.2 7 Oeste 12 Oeste 0.6 900.1 -1.1 91
2019-12-08 14:00:00 5.8 4 Noroeste 12 Oeste 0.2 900.5 -1 93
2019-12-08 13:00:00 4.6 0 Calma 5 Noroeste 0 901 -0.5 93
2019-12-08 12:00:00 3.6 2 Noroeste 7 Este 0 901.2 0 93
2019-12-08 11:00:00 1.4 0 Calma 5 Sudeste 0 901.5 0.6 94
2019-12-08 10:00:00 0.1 -- -- -- -- 0 901.5 0.7 93
2019-12-08 09:00:00 -1.1 0 Calma -- -- 0 901.2 0.7 93
2019-12-08 08:00:00 -1.3 5 Sudeste 9 Sur 0 900.9 0.2 92
2019-12-08 07:00:00 -2.3 8 Sur 14 Sur 0 900.8 -0.2 92
2019-12-08 06:00:00 -2.4 4 Sudeste 12 Sur 0 900.5 -0.6 92
2019-12-08 05:00:00 -2.2 7 Sudeste 12 Sudeste 0 900.7 -0.6 92
2019-12-08 04:00:00 -1.6 5 Sur 10 Sur 0 901 -0.7 92
2019-12-08 03:00:00 -1.5 6 Sur 12 Sur 0 901.1 -0.7 92
2019-12-08 02:00:00 -1.2 3 Sudeste 12 Sur 0 901.3 -0.3 92
2019-12-08 01:00:00 -1.1 6 Sudeste 13 Sur 0 901.7 0.2 93
2019-12-08 00:00:00 -1.2 3 Sur 8 Sur 0 901.8 0.6 92
2019-12-07 23:00:00 -0.8 0 Calma 8 Sur 0 901.6 0.5 91
2019-12-07 22:00:00 0.7 3 Sudeste 8 Sudeste 0 901.5 1 91
2019-12-07 21:00:00 1.7 0 Calma 10 Sur 0 901.2 1.2 89
2019-12-07 20:00:00 2.8 0 Calma 7 Este 0 901.1 1.3 85
2019-12-07 19:00:00 5.3 0 Calma 12 Oeste 0 900.5 1 79
2019-12-07 18:00:00 7.2 7 Oeste 15 Sudoeste 0 900 0.5 73
2019-12-07 17:00:00 9.8 6 Oeste 15 Oeste 0 899.8 0.2 65
2019-12-07 16:00:00 11.5 8 Oeste 20 Oeste 0 899.5 -0.8 61
2019-12-07 15:00:00 11.4 9 Oeste 19 Oeste 0 899.5 -1.4 59
2019-12-07 14:00:00 10.5 13 Noroeste 20 Noroeste 0 899.6 -1.4 60
2019-12-07 13:00:00 9.3 8 Oeste 13 Sudoeste 0 900.3 -0.4 68
2019-12-07 12:00:00 7 2 Este 6 Sudoeste 0 900.9 0.4 76
2019-12-07 11:00:00 2.7 0 Calma 12 Sur 0 901 0.6 88
2019-12-07 10:00:00 -0.5 3 Sudeste 10 Sudeste 0 900.7 0.8 93
2019-12-07 09:00:00 -2.6 3 Sudeste 12 Sur 0 900.5 0.8 94
2019-12-07 08:00:00 -2.7 5 Sudeste 14 Sur 0 900.4 0.6 94
2019-12-07 07:00:00 -2.3 2 Sudeste 15 Sur 0 899.9 -0.1 93
2019-12-07 06:00:00 -2.3 6 Sur 18 Sur 0 899.7 -0.3 94
2019-12-07 05:00:00 -2.1 7 Sudeste 14 Sudeste 0 899.8 -0.3 94
2019-12-07 04:00:00 -1.8 4 Sur 18 Sur 0 900 -0.4 94
2019-12-07 03:00:00 -1.6 5 Sur 13 Sur 0 900 -0.5 92
2019-12-07 02:00:00 -1 5 Sur 15 Sur 0 900.1 0 92
2019-12-07 01:00:00 -1.1 11 Sur 17 Sur 0 900.4 0.4 92
2019-12-07 00:00:00 0 4 Sur 12 Sur 0 900.5 0.7 93
2019-12-06 23:00:00 0.1 5 Sur 14 Sur 0 900.1 0.7 92
2019-12-06 22:00:00 0.7 5 Sudeste 15 Sur 0 900 0.6 92
2019-12-06 21:00:00 1.4 3 Sur 14 Sur 0 899.8 1.3 89
2019-12-06 20:00:00 3 4 Sudeste 12 Sur 0 899.4 1.1 88
2019-12-06 19:00:00 4.9 2 Sur 12 Sur 0 899.4 1.2 81
2019-12-06 18:00:00 6.9 7 Sur 15 Oeste 0 898.5 0.2 72
2019-12-06 17:00:00 9.8 4 Sur 24 Sudeste 0 898.3 -0.4 60
2019-12-06 16:00:00 11.5 4 Sur 11 Este 0 898.2 -1.4 54
2019-12-06 15:00:00 11.5 5 Sur 14 Sur 0 898.3 -2.1 55
2019-12-06 14:00:00 10 5 Sudeste 14 Este 0 898.7 -1.9 63
2019-12-06 13:00:00 8.1 7 Este 18 Este 0 899.6 -0.8 71
2019-12-06 12:00:00 6.3 7 Sur 18 Sudeste 0 900.4 0.6 78
2019-12-06 11:00:00 3.4 11 Sur 19 Sur 0 900.6 1.1 89
2019-12-06 10:00:00 1.1 4 Sur 12 Sur 0 900.4 1.3 87
2019-12-06 09:00:00 -2 -- -- -- -- 0 899.8 0.9 92
2019-12-06 08:00:00 -1.7 3 Sudeste 13 Sur 0 899.5 0.5 92
2019-12-06 07:00:00 -1.6 6 Sudeste 17 Sur 0 899.1 0 92
2019-12-06 06:00:00 -0.6 11 Sur 16 Sur 0 898.9 -0.1 93
2019-12-06 05:00:00 -1.2 4 Sur 13 Sur 0 899 0.2 93
2019-12-06 04:00:00 -1.1 3 Sudeste 14 Noroeste 0 899.1 0 93
2019-12-06 03:00:00 -0.9 0 Calma 5 Oeste 0 899 -0.4 92
2019-12-06 02:00:00 -0.7 4 Noroeste 15 Sur 0 898.8 -0.5 90
2019-12-06 01:00:00 0.6 5 Sur 13 Sudeste 0 899.1 -0.1 91
2019-12-06 00:00:00 0.4 0 Calma 4 Sudeste 0 899.4 0.5 91
2019-12-05 23:00:00 0.5 2 Sudeste 5 Sudeste 0 899.3 0.9 91
2019-12-05 22:00:00 0.9 5 Sur 10 Sur 0 899.2 1.3 87
2019-12-05 21:00:00 2.2 4 Sur 9 Sur 0 898.9 1.6 85
2019-12-05 20:00:00 3.3 8 Sur 11 Sur 0 898.4 1.8 81
2019-12-05 19:00:00 3.4 5 Sudeste 9 Sudeste 0 897.9 1.4 79
2019-12-05 18:00:00 5.5 4 Sudoeste 20 Sudeste 0 897.3 1 73
2019-12-05 17:00:00 6.5 10 Sudeste 23 Este 0 896.6 0.2 69
2019-12-05 16:00:00 8.6 14 Este 22 Este 0 896.5 0 62
2019-12-05 15:00:00 9.6 12 Sudeste 23 Este 0 896.3 -0.5 58
2019-12-05 14:00:00 9.1 13 Sudeste 26 Sudeste 0 896.4 -0.1 59
2019-12-05 13:00:00 8.6 17 Este 34 Sudeste 0 896.5 0.4 60
2019-12-05 12:00:00 8 13 Sudeste 26 Sudeste 0 896.8 1.8 63
2019-12-05 11:00:00 6.7 8 Sudeste 15 Sudeste 0 896.5 2 68
2019-12-05 10:00:00 4.4 3 Noroeste 12 Sur 0 896.1 2.6 76
2019-12-05 09:00:00 3.5 4 Sudeste 33 Este 0 895 2.1 78
2019-12-05 08:00:00 2.5 7 Sudeste 15 Este 0 894.5 1.8 85
2019-12-05 07:00:00 0.8 5 Oeste 10 Oeste 0 893.5 1.1 88
2019-12-05 06:00:00 1.4 4 Noroeste 11 Sudeste 0 892.9 1 86
2019-12-05 05:00:00 1.9 3 Sudoeste 11 Sur 0 892.7 0.8 83
2019-12-05 04:00:00 2.2 2 Oeste 13 Nordeste 0 892.4 1 81
2019-12-05 03:00:00 3.5 8 Sudeste 17 Este 0 891.9 2 78
2019-12-05 02:00:00 2.6 8 Nordeste 19 Nordeste 0 891.9 2.3 79
2019-12-05 01:00:00 2.4 5 Sur 22 Sudeste 0 891.4 2.3 79
2019-12-05 00:00:00 4.3 9 Sur 24 Sur 0 889.9 0.8 72
2019-12-04 23:00:00 4.1 7 Sur 17 Sur 0 889.6 0.6 68
2019-12-04 22:00:00 4.1 8 Sur 17 Sudoeste 0 889.1 0.3 69
2019-12-04 21:00:00 4.9 8 Sur 14 Sur 0 889.1 0.5 70
2019-12-04 20:00:00 5.8 9 Sur 19 Sudeste 0 889 0.9 70
2019-12-04 19:00:00 7 5 Sudoeste 23 Sur 0 888.8 0.8 67
2019-12-04 18:00:00 7.5 6 Sur 18 Este 0 888.6 0.9 66
2019-12-04 17:00:00 9.2 15 Este 27 Este 0 888.1 0 61
2019-12-04 16:00:00 10.6 6 Nordeste 15 Nordeste 0 888 -0.5 58
2019-12-04 15:00:00 9.5 5 Noroeste 16 Noroeste 0 887.7 -1.3 61
2019-12-04 14:00:00 8.6 6 Noroeste 16 Noroeste 0 888.1 -1.2 67
2019-12-04 13:00:00 7.8 11 Noroeste 17 Noroeste 0 888.5 -0.9 69
2019-12-04 12:00:00 6.8 6 Norte 13 Noroeste 0 889 -0.2 76
2019-12-04 11:00:00 4.3 0 Calma 6 Noroeste 0 889.3 0.5 84
2019-12-04 10:00:00 2.1 2 Norte -- -- 0 889.4 0.5 90
2019-12-04 09:00:00 0.5 -- -- -- -- 0 889.2 0.5 89
2019-12-04 08:00:00 1.3 6 Oeste 22 Este 0 888.8 -0.9 87
2019-12-04 07:00:00 4.2 13 Sudeste 23 Sudeste 0 888.9 -1.5 81
2019-12-04 06:00:00 2.8 5 Sudeste 23 Sudeste 0 888.7 -2 83
2019-12-04 05:00:00 4.2 11 Este 15 Sudeste 0 889.7 -1.8 81
2019-12-04 04:00:00 3.2 11 Sudeste 22 Sudeste 0 890.4 -1.8 85
2019-12-04 03:00:00 3 10 Sudeste 18 Este 0 890.7 -1.8 80
2019-12-04 02:00:00 2.5 10 Sudeste 21 Este 0 891.5 -1 80
2019-12-04 01:00:00 2.1 13 Sudeste 34 Sudeste 0 892.2 -0.1 74
2019-12-04 00:00:00 2.2 12 Sudeste 27 Este 0 892.5 0.2 72
2019-12-03 23:00:00 1.9 13 Este 23 Este 0 892.5 0.6 74
2019-12-03 22:00:00 1.2 9 Sudeste 19 Este 0 892.3 0.4 78
2019-12-03 21:00:00 1.4 6 Sudeste 23 Sudeste 0 892.3 0.8 78
2019-12-03 20:00:00 1.4 13 Sudeste 17 Sudeste 0 891.9 0.6 79
2019-12-03 19:00:00 1.6 6 Sur 19 Sur 0 891.9 0.8 77
2019-12-03 18:00:00 2.5 12 Sur 27 Sudeste 0 891.5 0.3 74
2019-12-03 17:00:00 4.5 11 Sudeste 36 Sudeste 0 891.3 -0.5 64
2019-12-03 16:00:00 6.7 13 Sudeste 31 Sudeste 0 891.1 -1.3 51
2019-12-03 15:00:00 7 8 Este 15 Este 0 891.2 -2.3 50
2019-12-03 14:00:00 6.7 5 Este 15 Este 0 891.8 -2 50
2019-12-03 13:00:00 4.7 6 Noroeste 11 Noroeste 0 892.4 -1.4 60
2019-12-03 12:00:00 3 4 Norte 9 Noroeste 0 893.5 -0.2 70
2019-12-03 11:00:00 1.2 2 Este 6 Nordeste 0 893.8 0.1 77
2019-12-03 10:00:00 -2.3 2 Noroeste 7 Norte 0 893.8 0 89
2019-12-03 09:00:00 -5.6 6 Oeste 15 Sudoeste 0 893.7 -0.3 89
2019-12-03 08:00:00 -6.3 3 Noroeste 5 Sudoeste 0 893.7 -0.6 90
2019-12-03 07:00:00 -6.1 2 Noroeste 14 Este 0 893.8 -0.9 91
2019-12-03 06:00:00 -5.4 2 Sudeste 12 Noroeste 0 894 -0.8 91
2019-12-03 05:00:00 -5.2 2 Noroeste 13 Noroeste 0 894.3 -0.6 91
2019-12-03 04:00:00 -4.3 3 Noroeste 8 Sur 0 894.7 -0.7 90
2019-12-03 03:00:00 -3.9 2 Noroeste 14 Sur 0 894.8 -0.8 89
2019-12-03 02:00:00 -3.3 0 Calma 11 Este 0 894.9 -0.6 92
2019-12-03 01:00:00 -3.2 4 Noroeste 6 Sur 0 895.4 -0.2 89
2019-12-03 00:00:00 -2.5 3 Este 13 Norte 0 895.6 0 87
2019-12-02 23:00:00 -1.2 3 Este 15 Sudeste 0 895.5 0.1 82
2019-12-02 22:00:00 -0.4 6 Sur 10 Sur 0 895.6 0.7 82
2019-12-02 21:00:00 0.6 2 Sudeste 14 Sudeste 0 895.6 1.2 76
2019-12-02 20:00:00 1.8 5 Sur 14 Sur 0 895.4 1.1 71
2019-12-02 19:00:00 2.3 9 Sur 15 Sur 0 894.9 0.7 72
2019-12-02 18:00:00 3.7 6 Sur 19 Este 0 894.4 0.6 68
2019-12-02 17:00:00 5.3 13 Este 34 Este 0 894.3 0.7 64
2019-12-02 16:00:00 7 14 Nordeste 36 Este 0 894.2 0.3 59
2019-12-02 15:00:00 7.1 22 Este 41 Este 0 893.8 -0.3 57
2019-12-02 14:00:00 7.9 17 Este 41 Sudeste 0 893.6 -0.6 53
2019-12-02 13:00:00 7.6 17 Sudeste 40 Este 0 893.9 0.3 57
2019-12-02 12:00:00 6.9 23 Este 46 Sudeste 0 894.1 0.8 59
2019-12-02 11:00:00 6.3 26 Este -- -- 0 894.2 1.3 57
2019-12-02 10:00:00 4.9 12 Este 34 Este 0 893.6 1 68
2019-12-02 09:00:00 4 13 Este 32 Este 0 893.3 1 68
2019-12-02 08:00:00 4.1 14 Este 57 Este 0 892.9 1.1 68
2019-12-02 07:00:00 4.3 23 Este 46 Este 0 892.6 1.1 69
2019-12-02 06:00:00 4.1 17 Este 40 Este 0 892.3 0.9 71
2019-12-02 05:00:00 4 16 Este 28 Sudeste 0 891.8 0.6 70
2019-12-02 04:00:00 4.5 -- -- -- -- 0 891.5 0.2 71
2019-12-02 03:00:00 3.9 5 Este 22 Este 0 891.4 -0.1 74
2019-12-02 02:00:00 3.7 6 Norte 34 Este 0 891.2 -0.1 74
2019-12-02 01:00:00 3.1 7 Noroeste 23 Norte 0 891.3 0.3 81
2019-12-02 00:00:00 1.9 3 Norte 6 Norte 0 891.5 1 91
2019-12-01 23:00:00 2.1 3 Sur 8 Norte 0 891.3 1.2 91
2019-12-01 22:00:00 2.3 2 Sur 7 Este 0 891 1.3 88
2019-12-01 21:00:00 3.7 5 Sudeste 20 Sudeste 0 890.5 1.1 81
2019-12-01 20:00:00 4.6 11 Sudeste 25 Sudeste 0 890.1 1.1 78
2019-12-01 19:00:00 5 9 Sudeste 17 Sudeste 0 889.7 1.2 78
2019-12-01 18:00:00 5 6 Este 12 Este 0 889.4 0.9 88
2019-12-01 17:00:00 5.4 3 Sudeste 19 Este 0.8 889 0.4 85
2019-12-01 16:00:00 6.5 0 Calma 9 Oeste 0.4 888.5 -0.4 76
2019-12-01 15:00:00 7 8 Este 14 Nordeste 0.2 888.5 -1 77
2019-12-01 14:00:00 7.6 5 Sur 13 Sudoeste 0 888.6 -0.9 68
2019-12-01 13:00:00 7.5 5 Sur 11 Sur 0 888.9 -0.4 68
2019-12-01 12:00:00 7.8 4 Sudeste 15 Este 0 889.5 0.5 69
2019-12-01 11:00:00 6.2 5 Este 19 Este 0 889.5 0.7 76
2019-12-01 10:00:00 4.5 3 Este 6 Este 0 889.3 0.6 89
2019-12-01 09:00:00 3.8 2 Sur 10 Sudeste 0.2 889 0.2 91
2019-12-01 08:00:00 3.8 6 Sudeste 10 Este 0 888.8 -0.4 91
2019-12-01 07:00:00 3.9 2 Norte 9 Este 0 888.7 -1 90
2019-12-01 06:00:00 3.8 4 Sudeste 9 Este 0 888.8 -1.5 90
2019-12-01 05:00:00 3.8 0 Calma 15 Sudoeste 0 889.2 -1.3 87
2019-12-01 04:00:00 3.8 3 Oeste 11 Oeste 0 889.7 -1.4 89
2019-12-01 03:00:00 3.9 9 Oeste 23 Sudoeste 0 890.3 -1.1 85
2019-12-01 02:00:00 4.2 8 Oeste 19 Sudoeste 0 890.5 -0.8 85
2019-12-01 01:00:00 4.3 10 Oeste 21 Oeste 0 891.1 -0.5 85
2019-12-01 00:00:00 4.4 11 Oeste 20 Oeste 0 891.4 -0.7 88
2019-11-30 23:00:00 4.5 12 Oeste 27 Oeste 0 891.3 -0.8 89
2019-11-30 22:00:00 5.1 12 Oeste 26 Oeste 0 891.6 -0.6 88
2019-11-30 21:00:00 4.8 5 Sudoeste 10 Sur 0 892.1 -0.6 91
2019-11-30 20:00:00 4.9 8 Sur 15 Sur 0 892.1 0.5 91
2019-11-30 19:00:00 5 2 Sur 32 Oeste 0.8 892.2 0.9 90
2019-11-30 18:00:00 5.4 19 Noroeste 45 Oeste 3 892.7 1.3 90
2019-11-30 17:00:00 7.6 12 Oeste 48 Noroeste 3 891.6 -0.9 91
2019-11-30 16:00:00 9.5 23 Oeste 54 Noroeste 3 891.3 -1.9 88
2019-11-30 15:00:00 10.7 12 Oeste 32 Oeste 0.6 891.4 -2.9 87
2019-11-30 14:00:00 10.4 11 Oeste 22 Sudoeste 0.6 892.5 -2.4 87
2019-11-30 13:00:00 10.3 5 Sur 23 Sudoeste 0 893.2 -1.9 87
2019-11-30 12:00:00 10.3 13 Sudoeste 31 Sudoeste 0.2 894.3 -0.7 88
2019-11-30 11:00:00 9.9 18 Sudoeste 37 Oeste 0.2 894.9 -0.2 86
2019-11-30 10:00:00 10.1 8 Sudoeste 30 Sudoeste 0 895.1 -0.3 87
2019-11-30 09:00:00 9.7 12 Sudoeste 38 Oeste 0 895 -0.6 86
2019-11-30 08:00:00 9.7 8 Sudoeste 34 Oeste 0 895.1 -0.9 89
2019-11-30 07:00:00 9.9 17 Oeste 38 Oeste 0 895.4 -1.2 90
2019-11-30 06:00:00 9.3 10 Oeste 29 Oeste 0.2 895.6 -1 93
2019-11-30 05:00:00 8.6 8 Sudeste 17 Sudeste 0.2 896 -1.2 92
2019-11-30 04:00:00 8.2 5 Sur 11 Sudeste 0.2 896.6 -1.2 93
2019-11-30 03:00:00 7.3 3 Sudeste 7 Sudeste 0.6 896.6 -1.6 92
2019-11-30 02:00:00 7 2 Este 11 Sudeste 0.2 897.2 -0.9 91
2019-11-30 01:00:00 6.4 3 Sudeste 14 Sur 0 897.8 -0.4 91
2019-11-30 00:00:00 6.4 4 Sur 10 Sur 0 898.2 0.2 91
2019-11-29 23:00:00 5.9 3 Sur 13 Este 0 898.1 0.1 91
2019-11-29 22:00:00 5.9 4 Sudeste 11 Sur 0 898.2 0.5 90
2019-11-29 21:00:00 5.7 5 Este 10 Sur 0 898 0.6 91
2019-11-29 20:00:00 6 3 Sudeste 10 Sur 0 898 0.6 89
2019-11-29 19:00:00 6.8 3 Sur 12 Oeste 0 897.7 0.7 85
2019-11-29 18:00:00 9 10 Sudoeste 18 Oeste 0 897.4 0.5 77
2019-11-29 17:00:00 10.7 12 Oeste 20 Oeste 0 897.4 0.2 67
2019-11-29 16:00:00 12.9 11 Oeste 26 Oeste 0 897 -0.3 61
2019-11-29 15:00:00 12.3 12 Oeste 20 Noroeste 0 896.9 -0.7 64
2019-11-29 14:00:00 11.5 7 Oeste 15 Oeste 0 897.2 -0.5 70
2019-11-29 13:00:00 11.7 8 Noroeste 13 Oeste 0 897.3 0.2 76
2019-11-29 12:00:00 10.9 5 Noroeste 13 Noroeste 0 897.6 1.2 79
2019-11-29 11:00:00 9.7 4 Norte 17 Norte 0 897.7 2 85
2019-11-29 10:00:00 9.3 5 Noroeste 11 Oeste 0 897.1 2.2 91
2019-11-29 09:00:00 8.5 3 Oeste 7 Sudoeste 0 896.4 1.7 92
2019-11-29 08:00:00 8.4 3 Oeste 5 Oeste 0 895.7 1.5 92
2019-11-29 07:00:00 8.4 2 Oeste 9 Norte 0 894.9 1.1 91
2019-11-29 06:00:00 8.6 6 Noroeste 21 Sudoeste 0 894.7 1.1 90
2019-11-29 05:00:00 8.6 6 Oeste 15 Oeste 0 894.2 1 91
2019-11-29 04:00:00 8.7 9 Oeste 23 Oeste 0 893.8 1 92
2019-11-29 03:00:00 8.7 11 Oeste 25 Oeste 0 893.6 1 91
2019-11-29 02:00:00 8.6 12 Oeste 34 Oeste 0.2 893.2 0.9 92
2019-11-29 01:00:00 8.6 17 Oeste 41 Oeste 0 892.8 0.7 90
2019-11-29 00:00:00 8.5 18 Oeste 42 Oeste 0.2 892.6 0 90
2019-11-28 23:00:00 8.5 17 Oeste 37 Oeste 0.8 892.3 0.4 88
2019-11-28 22:00:00 8.2 10 Oeste 28 Oeste 0.6 892.1 0.6 88
2019-11-28 21:00:00 8.3 16 Oeste 34 Oeste 0.6 892.6 1.1 88
2019-11-28 20:00:00 8.2 9 Oeste 32 Oeste 0.2 891.9 0.2 88
2019-11-28 19:00:00 8.1 12 Oeste 28 Oeste 0.2 891.5 0.2 86
2019-11-28 18:00:00 8.6 9 Sudoeste 32 Sudoeste 0 891.5 -0.1 80
2019-11-28 17:00:00 8.9 10 Sudoeste 29 Oeste 0 891.7 0.2 80
2019-11-28 16:00:00 8.9 16 Oeste 38 Oeste 0 891.3 -0.6 82
2019-11-28 15:00:00 9.2 19 Oeste 47 Oeste 0 891.6 -1.2 82
2019-11-28 14:00:00 9.4 18 Oeste 41 Oeste 0 891.5 -1.4 81
2019-11-28 13:00:00 8.2 17 Oeste 44 Oeste 0 891.9 -0.8 87
2019-11-28 12:00:00 7.9 23 Oeste 48 Sudoeste 0 892.8 0.8 89
2019-11-28 11:00:00 7.7 18 Oeste 39 Oeste 0 892.9 1.6 90
2019-11-28 10:00:00 7.3 15 Oeste 44 Noroeste 0 892.7 1.9 90
2019-11-28 09:00:00 7.1 14 Oeste 52 Oeste 0 892 1.3 91
2019-11-28 08:00:00 7 12 Oeste 39 Oeste 0 891.3 0.7 89
2019-11-28 07:00:00 6.9 12 Oeste 39 Oeste 0.2 890.8 0.5 89
2019-11-28 06:00:00 6.9 18 Oeste 41 Sudoeste 0.2 890.7 0.6 90
2019-11-28 05:00:00 6.8 19 Oeste 42 Sudoeste 0 890.6 0.5 89
2019-11-28 04:00:00 6.9 17 Oeste 42 Oeste 0.4 890.3 0.2 88
2019-11-28 03:00:00 6.7 17 Oeste 44 Oeste 0 890.1 -0.1 88
2019-11-28 02:00:00 6.6 15 Oeste 42 Oeste 0.2 890.1 0.1 89
2019-11-28 01:00:00 6.8 16 Oeste 41 Oeste 0.2 890.1 0.3 89
2019-11-28 00:00:00 6.7 19 Oeste 40 Sudoeste 0.2 890.2 0.7 89
2019-11-27 23:00:00 6.8 17 Oeste 35 Oeste 0 890 0.6 86
2019-11-27 22:00:00 6.8 13 Oeste 36 Oeste 0 889.8 0.5 84
2019-11-27 21:00:00 7 18 Oeste 42 Sudoeste 0.2 889.5 0.8 84
2019-11-27 20:00:00 7 16 Oeste 41 Oeste 0 889.4 1.2 86
2019-11-27 19:00:00 6.8 11 Oeste 31 Oeste 1 889.3 1.2 88
2019-11-27 18:00:00 7 15 Oeste 56 Sudoeste 0.6 888.7 0.5 86
2019-11-27 17:00:00 7.3 21 Oeste 43 Oeste 0.4 888.2 -0.2 84
2019-11-27 16:00:00 7.6 16 Oeste 32 Sudoeste 0 888.1 -0.9 81
2019-11-27 15:00:00 7.6 15 Oeste 40 Sudoeste 0 888.2 -1.3 77
2019-11-27 14:00:00 7.6 19 Oeste 40 Sudoeste 0 888.4 -1.1 79
2019-11-27 06:00:00 -- -- -- -- -- -- -- -- --
2019-11-27 05:00:00 -- -- -- -- -- -- -- -- --
2019-11-27 04:00:00 -- -- -- -- -- -- -- -- --
2019-11-27 03:00:00 -- -- -- -- -- -- -- -- --
2019-11-27 02:00:00 -- -- -- -- -- -- -- -- --
2019-11-27 01:00:00 -- -- -- -- -- -- -- -- --
2019-11-27 00:00:00 -- -- -- -- -- -- -- -- --
2019-11-26 23:00:00 -- -- -- -- -- -- -- -- --
2019-11-26 22:00:00 -- -- -- -- -- -- -- -- --
2019-11-26 21:00:00 -- -- -- -- -- -- -- -- --
2019-11-26 20:00:00 -- -- -- -- -- -- -- -- --
2019-11-26 19:00:00 -- -- -- -- -- -- -- -- --
2019-11-26 18:00:00 -- -- -- -- -- -- -- -- --
2019-11-26 17:00:00 -- -- -- -- -- -- -- -- --
2019-11-26 16:00:00 -- -- -- -- -- -- -- -- --
2019-11-26 15:00:00 -- -- -- -- -- -- -- -- --
2019-11-26 14:00:00 -- -- -- -- -- -- -- -- --
2019-11-26 13:00:00 -- -- -- -- -- -- -- -- --
2019-11-26 12:00:00 -- -- -- -- -- -- -- -- --
2019-11-26 11:00:00 -- -- -- -- -- -- -- -- --
2019-11-26 10:00:00 -- -- -- -- -- -- -- -- --
2019-11-26 09:00:00 -- -- -- -- -- -- -- -- --
2019-11-26 08:00:00 -- -- -- -- -- -- -- -- --
2019-11-26 07:00:00 -- -- -- -- -- -- -- -- --
2019-11-26 06:00:00 -- -- -- -- -- -- -- -- --
2019-11-26 05:00:00 -- -- -- -- -- -- -- -- --
2019-11-26 04:00:00 -- -- -- -- -- -- -- -- --
2019-11-26 03:00:00 -- -- -- -- -- -- -- -- --
2019-11-26 02:00:00 -- -- -- -- -- -- -- -- --
2019-11-26 01:00:00 -- -- -- -- -- -- -- -- --
2019-11-26 00:00:00 -- -- -- -- -- -- -- -- --
2019-11-25 23:00:00 -- -- -- -- -- -- -- -- --
2019-11-25 22:00:00 -- -- -- -- -- -- -- -- --
2019-11-25 21:00:00 -- -- -- -- -- -- -- -- --
2019-11-25 20:00:00 -- -- -- -- -- -- -- -- --
2019-11-25 19:00:00 -- -- -- -- -- -- -- -- --
2019-11-25 18:00:00 -- -- -- -- -- -- -- -- --
2019-11-25 17:00:00 -- -- -- -- -- -- -- -- --
2019-11-25 16:00:00 -- -- -- -- -- -- -- -- --
2019-11-25 15:00:00 -- -- -- -- -- -- -- -- --
2019-11-25 14:00:00 -- -- -- -- -- -- -- -- --
2019-11-25 13:00:00 -- -- -- -- -- -- -- -- --
2019-11-25 12:00:00 -- -- -- -- -- -- -- -- --
2019-11-25 11:00:00 -- -- -- -- -- -- -- -- --
2019-11-25 10:00:00 -- -- -- -- -- -- -- -- --
2019-11-25 09:00:00 -- -- -- -- -- -- -- -- --
2019-11-25 08:00:00 -- -- -- -- -- -- -- -- --
2019-11-25 07:00:00 -- -- -- -- -- -- -- -- --
2019-11-25 06:00:00 -- -- -- -- -- -- -- -- --
2019-11-25 05:00:00 -- -- -- -- -- -- -- -- --
2019-11-25 04:00:00 -- -- -- -- -- -- -- -- --
2019-11-25 03:00:00 -- -- -- -- -- -- -- -- --
2019-11-25 02:00:00 -- -- -- -- -- -- -- -- --
2019-11-25 01:00:00 -- -- -- -- -- -- -- -- --
2019-11-25 00:00:00 -- -- -- -- -- -- -- -- --
2019-11-24 23:00:00 -- -- -- -- -- -- -- -- --
2019-11-24 22:00:00 -- -- -- -- -- -- -- -- --
2019-11-24 21:00:00 -- -- -- -- -- -- -- -- --
2019-11-24 20:00:00 -- -- -- -- -- -- -- -- --
2019-11-24 19:00:00 -- -- -- -- -- -- -- -- --
2019-11-24 18:00:00 -- -- -- -- -- -- -- -- --
2019-11-24 17:00:00 -- -- -- -- -- -- -- -- --
2019-11-24 16:00:00 -- -- -- -- -- -- -- -- --
2019-11-24 15:00:00 -- -- -- -- -- -- -- -- --
2019-11-24 14:00:00 -- -- -- -- -- -- -- -- --
2019-11-24 13:00:00 -- -- -- -- -- -- -- -- --
2019-11-24 12:00:00 -- -- -- -- -- -- -- -- --
2019-11-24 11:00:00 -- -- -- -- -- -- -- -- --
2019-11-24 10:00:00 -- -- -- -- -- -- -- -- --
2019-11-24 09:00:00 -- -- -- -- -- -- -- -- --
2019-11-24 08:00:00 -- -- -- -- -- -- -- -- --
2019-11-24 07:00:00 -- -- -- -- -- -- -- -- --
2019-11-24 06:00:00 -- -- -- -- -- -- -- -- --
2019-11-24 05:00:00 -- -- -- -- -- -- -- -- --
2019-11-24 04:00:00 -- -- -- -- -- -- -- -- --
2019-11-24 03:00:00 -- -- -- -- -- -- -- -- --
2019-11-24 02:00:00 -- -- -- -- -- -- -- -- --
2019-11-24 01:00:00 -- -- -- -- -- -- -- -- --
2019-11-24 00:00:00 -- -- -- -- -- -- -- -- --
2019-11-23 23:00:00 -- -- -- -- -- -- -- -- --
2019-11-23 22:00:00 -- -- -- -- -- -- -- -- --
2019-11-23 21:00:00 -- -- -- -- -- -- -- -- --
2019-11-23 20:00:00 -- -- -- -- -- -- -- -- --
2019-11-23 19:00:00 -- -- -- -- -- -- -- -- --
2019-11-23 18:00:00 -- -- -- -- -- -- -- -- --
2019-11-23 17:00:00 -- -- -- -- -- -- -- -- --
2019-11-23 16:00:00 -- -- -- -- -- -- -- -- --
2019-11-23 15:00:00 -- -- -- -- -- -- -- -- --
2019-11-23 14:00:00 -- -- -- -- -- -- -- -- --
2019-11-23 13:00:00 -- -- -- -- -- -- -- -- --
2019-11-23 12:00:00 -- -- -- -- -- -- -- -- --
2019-11-23 11:00:00 -- -- -- -- -- -- -- -- --
2019-11-23 10:00:00 -- -- -- -- -- -- -- -- --
2019-11-23 09:00:00 -- -- -- -- -- -- -- -- --
2019-11-23 08:00:00 -- -- -- -- -- -- -- -- --
2019-11-23 07:00:00 -- -- -- -- -- -- -- -- --
2019-11-23 06:00:00 -- -- -- -- -- -- -- -- --
2019-11-23 05:00:00 -- -- -- -- -- -- -- -- --
2019-11-23 04:00:00 -- -- -- -- -- -- -- -- --
2019-11-23 03:00:00 -- -- -- -- -- -- -- -- --
2019-11-23 02:00:00 -- -- -- -- -- -- -- -- --
2019-11-23 01:00:00 -- -- -- -- -- -- -- -- --
2019-11-23 00:00:00 -- -- -- -- -- -- -- -- --
2019-11-22 23:00:00 -- -- -- -- -- -- -- -- --
2019-11-22 22:00:00 -- -- -- -- -- -- -- -- --
2019-11-22 21:00:00 -- -- -- -- -- -- -- -- --
2019-11-22 20:00:00 -- -- -- -- -- -- -- -- --
2019-11-22 19:00:00 -- -- -- -- -- -- -- -- --
2019-11-22 18:00:00 -- -- -- -- -- -- -- -- --
2019-11-22 17:00:00 -- -- -- -- -- -- -- -- --
2019-11-22 16:00:00 -- -- -- -- -- -- -- -- --
2019-11-22 15:00:00 -- -- -- -- -- -- -- -- --
2019-11-22 14:00:00 -- -- -- -- -- -- -- -- --
2019-11-22 13:00:00 -- -- -- -- -- -- -- -- --
2019-11-22 12:00:00 -- -- -- -- -- -- -- -- --
2019-11-22 11:00:00 -- -- -- -- -- -- -- -- --
2019-11-22 10:00:00 -- -- -- -- -- -- -- -- --
2019-11-22 09:00:00 -- -- -- -- -- -- -- -- --
2019-11-22 08:00:00 -- -- -- -- -- -- -- -- --
2019-11-22 07:00:00 -- -- -- -- -- -- -- -- --
2019-11-22 06:00:00 -- -- -- -- -- -- -- -- --
2019-11-22 05:00:00 -- -- -- -- -- -- -- -- --
2019-11-22 04:00:00 -- -- -- -- -- -- -- -- --
2019-11-22 03:00:00 -- -- -- -- -- -- -- -- --
2019-11-22 02:00:00 -- -- -- -- -- -- -- -- --
2019-11-22 01:00:00 -- -- -- -- -- -- -- -- --
2019-11-22 00:00:00 -- -- -- -- -- -- -- -- --
2019-11-21 23:00:00 -- -- -- -- -- -- -- -- --
2019-11-21 22:00:00 -- -- -- -- -- -- -- -- --
2019-11-21 21:00:00 -- -- -- -- -- -- -- -- --
2019-11-21 20:00:00 -- -- -- -- -- -- -- -- --
2019-11-21 19:00:00 -- -- -- -- -- -- -- -- --
2019-11-21 18:00:00 -- -- -- -- -- -- -- -- --
2019-11-21 17:00:00 -- -- -- -- -- -- -- -- --
2019-11-21 16:00:00 -- -- -- -- -- -- -- -- --
2019-11-21 15:00:00 -- -- -- -- -- -- -- -- --
2019-11-21 14:00:00 -- -- -- -- -- -- -- -- --
2019-11-21 13:00:00 -- -- -- -- -- -- -- -- --
2019-11-21 12:00:00 -- -- -- -- -- -- -- -- --
2019-11-21 11:00:00 -- -- -- -- -- -- -- -- --
2019-11-21 10:00:00 -- -- -- -- -- -- -- -- --
2019-11-21 09:00:00 -- -- -- -- -- -- -- -- --
2019-11-21 08:00:00 -- -- -- -- -- -- -- -- --
2019-11-21 07:00:00 -- -- -- -- -- -- -- -- --
2019-11-21 06:00:00 -- -- -- -- -- -- -- -- --
2019-11-21 05:00:00 -- -- -- -- -- -- -- -- --
2019-11-21 04:00:00 -- -- -- -- -- -- -- -- --
2019-11-21 03:00:00 -- -- -- -- -- -- -- -- --
2019-11-21 02:00:00 -- -- -- -- -- -- -- -- --
2019-11-21 01:00:00 -- -- -- -- -- -- -- -- --
2019-11-21 00:00:00 -- -- -- -- -- -- -- -- --
2019-11-20 23:00:00 -- -- -- -- -- -- -- -- --
2019-11-20 22:00:00 -- -- -- -- -- -- -- -- --
2019-11-20 21:00:00 -- -- -- -- -- -- -- -- --
2019-11-20 20:00:00 -- -- -- -- -- -- -- -- --
2019-11-20 19:00:00 -- -- -- -- -- -- -- -- --
2019-11-20 18:00:00 -- -- -- -- -- -- -- -- --
2019-11-20 17:00:00 -- -- -- -- -- -- -- -- --
2019-11-20 16:00:00 -- -- -- -- -- -- -- -- --
2019-11-20 15:00:00 -- -- -- -- -- -- -- -- --
2019-11-20 14:00:00 -- -- -- -- -- -- -- -- --
2019-11-20 13:00:00 -- -- -- -- -- -- -- -- --
2019-11-20 12:00:00 -- -- -- -- -- -- -- -- --
2019-11-20 11:00:00 -- -- -- -- -- -- -- -- --
2019-11-20 10:00:00 -- -- -- -- -- -- -- -- --
2019-11-20 09:00:00 -- -- -- -- -- -- -- -- --
2019-11-20 08:00:00 -- -- -- -- -- -- -- -- --
2019-11-20 07:00:00 -- -- -- -- -- -- -- -- --
2019-11-20 06:00:00 -- -- -- -- -- -- -- -- --
2019-11-20 05:00:00 -- -- -- -- -- -- -- -- --
2019-11-20 04:00:00 -- -- -- -- -- -- -- -- --
2019-11-20 03:00:00 -- -- -- -- -- -- -- -- --
2019-11-20 02:00:00 -- -- -- -- -- -- -- -- --
2019-11-20 01:00:00 -- -- -- -- -- -- -- -- --
2019-11-20 00:00:00 -- -- -- -- -- -- -- -- --
2019-11-19 23:00:00 -- -- -- -- -- -- -- -- --
2019-11-19 22:00:00 -- -- -- -- -- -- -- -- --
2019-11-19 21:00:00 -- -- -- -- -- -- -- -- --
2019-11-19 20:00:00 -- -- -- -- -- -- -- -- --
2019-11-19 19:00:00 -- -- -- -- -- -- -- -- --
2019-11-19 18:00:00 -- -- -- -- -- -- -- -- --
2019-11-19 17:00:00 -- -- -- -- -- -- -- -- --
2019-11-19 16:00:00 -- -- -- -- -- -- -- -- --
2019-11-19 15:00:00 -- -- -- -- -- -- -- -- --
2019-11-19 14:00:00 -- -- -- -- -- -- -- -- --
2019-11-19 13:00:00 -- -- -- -- -- -- -- -- --
2019-11-19 12:00:00 -- -- -- -- -- -- -- -- --
2019-11-19 11:00:00 -- -- -- -- -- -- -- -- --
2019-11-19 10:00:00 -- -- -- -- -- -- -- -- --
2019-11-19 09:00:00 -- -- -- -- -- -- -- -- --
2019-11-19 08:00:00 -- -- -- -- -- -- -- -- --
2019-11-19 07:00:00 -- -- -- -- -- -- -- -- --
2019-11-19 06:00:00 -- -- -- -- -- -- -- -- --
2019-11-19 05:00:00 -- -- -- -- -- -- -- -- --
2019-11-19 04:00:00 -- -- -- -- -- -- -- -- --
2019-11-19 03:00:00 -- -- -- -- -- -- -- -- --
2019-11-19 02:00:00 -- -- -- -- -- -- -- -- --
2019-11-19 01:00:00 -- -- -- -- -- -- -- -- --
2019-11-19 00:00:00 -- -- -- -- -- -- -- -- --
2019-11-18 23:00:00 -- -- -- -- -- -- -- -- --
2019-11-18 22:00:00 -- -- -- -- -- -- -- -- --
2019-11-18 21:00:00 -- -- -- -- -- -- -- -- --
2019-11-18 20:00:00 -- -- -- -- -- -- -- -- --
2019-11-18 19:00:00 -- -- -- -- -- -- -- -- --
2019-11-18 18:00:00 -- -- -- -- -- -- -- -- --
2019-11-18 17:00:00 -- -- -- -- -- -- -- -- --
2019-11-18 16:00:00 -- -- -- -- -- -- -- -- --
2019-11-18 15:00:00 -- -- -- -- -- -- -- -- --
2019-11-18 14:00:00 -- -- -- -- -- -- -- -- --
2019-11-18 13:00:00 -- -- -- -- -- -- -- -- --
2019-11-18 12:00:00 -- -- -- -- -- -- -- -- --
2019-11-18 11:00:00 -- -- -- -- -- -- -- -- --
2019-11-18 10:00:00 -- -- -- -- -- -- -- -- --
2019-11-18 09:00:00 -- -- -- -- -- -- -- -- --
2019-11-18 08:00:00 -- -- -- -- -- -- -- -- --
2019-11-18 07:00:00 -- -- -- -- -- -- -- -- --
2019-11-18 06:00:00 -- -- -- -- -- -- -- -- --
2019-11-18 05:00:00 -- -- -- -- -- -- -- -- --
2019-11-18 04:00:00 -- -- -- -- -- -- -- -- --
2019-11-18 03:00:00 -- -- -- -- -- -- -- -- --
2019-11-18 02:00:00 -- -- -- -- -- -- -- -- --
2019-11-18 01:00:00 -- -- -- -- -- -- -- -- --
2019-11-18 00:00:00 -- -- -- -- -- -- -- -- --
2019-11-17 23:00:00 -- -- -- -- -- -- -- -- --
2019-11-17 22:00:00 -- -- -- -- -- -- -- -- --
2019-11-17 21:00:00 -- -- -- -- -- -- -- -- --
2019-11-17 20:00:00 -- -- -- -- -- -- -- -- --
2019-11-17 19:00:00 -- -- -- -- -- -- -- -- --
2019-11-17 18:00:00 -- -- -- -- -- -- -- -- --
2019-11-17 17:00:00 -- -- -- -- -- -- -- -- --
2019-11-17 16:00:00 -- -- -- -- -- -- -- -- --
2019-11-17 15:00:00 -- -- -- -- -- -- -- -- --
2019-11-17 14:00:00 -- -- -- -- -- -- -- -- --
2019-11-17 13:00:00 -- -- -- -- -- -- -- -- --
2019-11-17 12:00:00 -- -- -- -- -- -- -- -- --
2019-11-17 11:00:00 -- -- -- -- -- -- -- -- --
2019-11-17 10:00:00 -- -- -- -- -- -- -- -- --
2019-11-17 09:00:00 -- -- -- -- -- -- -- -- --
2019-11-17 08:00:00 -- -- -- -- -- -- -- -- --
2019-11-17 07:00:00 -- -- -- -- -- -- -- -- --
2019-11-17 06:00:00 -- -- -- -- -- -- -- -- --
2019-11-17 05:00:00 -- -- -- -- -- -- -- -- --
2019-11-17 04:00:00 -- -- -- -- -- -- -- -- --
2019-11-17 03:00:00 -- -- -- -- -- -- -- -- --
2019-11-17 02:00:00 -- -- -- -- -- -- -- -- --
2019-11-17 01:00:00 -- -- -- -- -- -- -- -- --
2019-11-17 00:00:00 -- -- -- -- -- -- -- -- --
2019-11-16 23:00:00 -- -- -- -- -- -- -- -- --
2019-11-16 22:00:00 -- -- -- -- -- -- -- -- --
2019-11-16 21:00:00 -- -- -- -- -- -- -- -- --
2019-11-16 20:00:00 -- -- -- -- -- -- -- -- --
2019-11-16 19:00:00 -- -- -- -- -- -- -- -- --
2019-11-16 18:00:00 -- -- -- -- -- -- -- -- --
2019-11-16 17:00:00 -- -- -- -- -- -- -- -- --
2019-11-16 16:00:00 -- -- -- -- -- -- -- -- --
2019-11-16 15:00:00 -- -- -- -- -- -- -- -- --
2019-11-16 14:00:00 -- -- -- -- -- -- -- -- --
2019-11-16 13:00:00 -- -- -- -- -- -- -- -- --
2019-11-16 12:00:00 -- -- -- -- -- -- -- -- --
2019-11-16 11:00:00 -- -- -- -- -- -- -- -- --
2019-11-16 10:00:00 -- -- -- -- -- -- -- -- --
2019-11-16 09:00:00 -- -- -- -- -- -- -- -- --
2019-11-16 08:00:00 -- -- -- -- -- -- -- -- --
2019-11-16 07:00:00 -- -- -- -- -- -- -- -- --
2019-11-16 06:00:00 -- -- -- -- -- -- -- -- --
2019-11-16 05:00:00 -- -- -- -- -- -- -- -- --
2019-11-16 04:00:00 -- -- -- -- -- -- -- -- --
2019-11-16 03:00:00 -- -- -- -- -- -- -- -- --
2019-11-16 02:00:00 -- -- -- -- -- -- -- -- --
2019-11-16 01:00:00 -- -- -- -- -- -- -- -- --
2019-11-16 00:00:00 -- -- -- -- -- -- -- -- --
2019-11-15 23:00:00 -- -- -- -- -- -- -- -- --
2019-11-15 22:00:00 -- -- -- -- -- -- -- -- --
2019-11-15 21:00:00 -- -- -- -- -- -- -- -- --
2019-11-15 20:00:00 -- -- -- -- -- -- -- -- --
2019-11-15 19:00:00 -- -- -- -- -- -- -- -- --
2019-11-15 18:00:00 -- -- -- -- -- -- -- -- --
2019-11-15 17:00:00 -- -- -- -- -- -- -- -- --
2019-11-15 16:00:00 -- -- -- -- -- -- -- -- --
2019-11-15 15:00:00 -- -- -- -- -- -- -- -- --
2019-11-15 14:00:00 -- -- -- -- -- -- -- -- --
2019-11-15 13:00:00 -- -- -- -- -- -- -- -- --
2019-11-15 12:00:00 -- -- -- -- -- -- -- -- --
2019-11-15 11:00:00 -- 18 Oeste 32 Oeste 0.2 880.8 1.1 --
2019-11-15 10:00:00 -- 15 Noroeste 28 Noroeste 0.2 880.5 1.1 --
2019-11-15 09:00:00 -- 13 Noroeste 26 Noroeste 0.2 880.2 1 --
2019-11-15 08:00:00 -- 10 Oeste 24 Oeste 0 879.7 0.5 --
2019-11-15 07:00:00 -- 10 Oeste 26 Oeste 0.2 879.4 -0.1 --
2019-11-15 06:00:00 -- 10 Oeste 18 Oeste 0.4 879.2 -0.1 --
2019-11-15 05:00:00 -- 6 Oeste 19 Noroeste 0.2 879.2 0 --
2019-11-15 04:00:00 -- 12 Oeste 26 Oeste 0 879.5 0.7 --
2019-11-15 03:00:00 -- 10 Oeste 25 Oeste 0 879.3 1 --
2019-11-15 02:00:00 -- 12 Oeste 31 Oeste 0 879.2 1.3 --
2019-11-15 01:00:00 -- 18 Oeste 32 Oeste 0 878.8 1.3 --
2019-11-15 00:00:00 -- 15 Oeste 34 Oeste 0 878.3 1.4 --
2019-11-14 23:00:00 -- 19 Oeste 37 Oeste 0.4 877.9 1.4 --
2019-11-14 22:00:00 -- 13 Oeste 30 Oeste 0 877.5 1.6 --
2019-11-14 21:00:00 -- 15 Oeste 32 Oeste 0 876.9 1.5 --
2019-11-14 20:00:00 -- 15 Oeste 27 Oeste 0.2 876.5 1.1 --
2019-11-14 19:00:00 -- 10 Oeste 25 Noroeste 0.6 875.9 0 --
2019-11-14 18:00:00 -- 9 Oeste 27 Oeste 0.6 875.4 -0.7 --
2019-11-14 17:00:00 -- 3 Oeste 24 Oeste 0.4 875.4 -1.5 --
2019-11-14 16:00:00 -- 14 Oeste 36 Sudoeste 0.4 875.9 -2.1 --
2019-11-14 15:00:00 -- 10 Oeste 40 Oeste 0 876.1 -2.8 --
2019-11-14 14:00:00 -- 18 Oeste 38 Oeste 0 876.9 -2.7 --
2019-11-14 13:00:00 -- 19 Oeste 40 Oeste 0 878 -2.1 --
2019-11-14 12:00:00 -- 24 Oeste 44 Oeste 0.2 878.9 -1 --
2019-11-14 11:00:00 -- 17 Oeste 36 Oeste 0 879.6 0 --
2019-11-14 10:00:00 -- 13 Oeste 39 Sudoeste 0.2 880.1 0.5 --
2019-11-14 09:00:00 -- 7 Oeste 19 Oeste 0 879.9 0.2 --
2019-11-14 08:00:00 -- 10 Oeste 29 Oeste 0 879.6 -0.2 --
2019-11-14 07:00:00 -- 12 Oeste -- -- 0.2 879.6 -0.8 --
2019-11-14 06:00:00 -- 24 Oeste 59 Oeste 3.4 879.7 -2.1 --
2019-11-14 05:00:00 -- 22 Oeste 63 Sudoeste 3.8 879.8 -3.5 --
2019-11-14 04:00:00 -- 26 Oeste 53 Sudoeste 0.6 880.4 -4.4 --
2019-11-14 03:00:00 -- 23 Oeste 53 Oeste 0 881.8 -3.6 --
2019-11-14 02:00:00 -- 14 Oeste 36 Oeste 0 883.3 -2.7 --
2019-11-14 01:00:00 -- 16 Oeste 41 Oeste 0 884.8 -1.7 --
2019-11-14 00:00:00 -- 16 Oeste 40 Oeste 0 885.4 -2.1 --
2019-11-13 23:00:00 -- 20 Oeste 40 Sudoeste 0 886 -2 --
2019-11-13 22:00:00 -- 14 Oeste 32 Oeste 0 886.5 -1.9 --
2019-11-13 21:00:00 -- 14 Oeste -- -- 0 887.5 -1.8 --
2019-11-13 20:00:00 -- 7 Oeste 22 Oeste 0 888 -0.9 --
2019-11-13 19:00:00 -- -- -- -- -- 0 888.4 -0.6 --
2019-11-13 18:00:00 -- 13 Oeste 23 Oeste 0 889.3 0.5 --
2019-11-13 17:00:00 -- 12 Oeste -- -- 0 888.9 0.2 --
2019-11-13 16:00:00 -- 13 Noroeste -- -- 0 889 -0.3 --
2019-11-13 15:00:00 -- -- -- -- -- 0 888.8 -0.2 --
2019-11-13 14:00:00 -- -- -- -- -- 0 888.7 0.4 --
2019-11-13 13:00:00 -- 13 Norte -- -- 0 889.3 1.4 --
2019-11-13 12:00:00 -- 13 Norte -- -- 0 889 2.5 --
2019-11-13 11:00:00 -- 17 Noroeste -- -- 0 888.3 3.3 --
2019-11-13 10:00:00 -- 9 Noroeste -- -- 0 887.9 4.2 --
2019-11-13 09:00:00 -- 21 Oeste 43 Oeste 0 886.5 3.6 --
2019-11-13 08:00:00 -- 17 Oeste 32 Oeste 0 885 2.7 --
2019-11-13 07:00:00 -- 12 Noroeste 36 Oeste 0 883.7 1.4 --
2019-11-13 06:00:00 -- 21 Oeste 37 Oeste 0.6 882.9 0.1 --
2019-11-13 05:00:00 -- 3 Oeste 18 Sur 0.8 882.3 -1.7 --
2019-11-13 04:00:00 -- 3 Sur 7 Sur 3.6 882.3 -2.1 --
2019-11-13 03:00:00 -- 5 Sudeste 18 Este 3.2 882.8 -2.6 --
2019-11-13 02:00:00 -- 4 Sur 17 Este 3.8 884 -2.5 --
2019-11-13 01:00:00 -- 5 Este 16 Sudeste 2.2 884.4 -2.9 --
2019-11-13 00:00:00 -- 4 Nordeste 7 Nordeste 1.2 885.4 -2.5 --
2019-11-12 23:00:00 -- 3 Este 10 Este 1.6 886.5 -2.1 --
2019-11-12 22:00:00 -- 2 Nordeste 8 Sudeste 1.6 887.3 -2 --
2019-11-12 21:00:00 -- 5 Este 8 Nordeste 2.4 887.9 -1.4 --
2019-11-12 20:00:00 -- 3 Noroeste 32 Oeste 2.8 888.6 -0.7 --
2019-11-12 19:00:00 -- 14 Oeste 25 Oeste 1.8 889.3 -0.5 --
2019-11-12 18:00:00 -- 10 Oeste 23 Oeste 0.2 889.3 -1.3 --
2019-11-12 17:00:00 -- 9 Oeste 31 Noroeste 0 889.3 -1.9 --
2019-11-12 16:00:00 -- 14 Oeste 36 Noroeste 0 889.8 -2.1 --
2019-11-12 15:00:00 -- 12 Oeste 29 Oeste 0 890.6 -2.1 --
2019-11-12 14:00:00 -- 18 Oeste 35 Noroeste 0 891.2 -1.6 --
2019-11-12 13:00:00 -- 14 Oeste 27 Oeste 0 891.9 -1.1 --
2019-11-12 12:00:00 -- 6 Sudoeste 21 Oeste 0 892.7 -0.2 --
2019-11-12 11:00:00 -- 11 Noroeste 25 Oeste 0 892.8 0.3 --
2019-11-12 10:00:00 -- 13 Oeste 25 Oeste 0 893 0.4 --
2019-11-12 09:00:00 -- 10 Oeste -- -- -- 892.9 0 --
2019-11-12 08:00:00 -- 9 Oeste 24 Noroeste 0 892.5 -0.6 --
2019-11-12 07:00:00 -- 8 Noroeste 23 Noroeste 0 892.6 -0.7 --
2019-11-12 06:00:00 -- 10 Noroeste 26 Oeste 0 892.9 -0.6 --
2019-11-12 05:00:00 -- 10 Noroeste 32 Oeste 0 893.1 -0.5 --
2019-11-12 04:00:00 -- 12 Oeste 25 Noroeste 0 893.3 -1 --
2019-11-12 03:00:00 -- 8 Noroeste 17 Nordeste 0 893.5 -1 --
2019-11-12 02:00:00 -- 3 Nordeste 19 Noroeste 0 893.6 -1.1 --
2019-11-12 01:00:00 -- 11 Noroeste 23 Noroeste 0 894.3 -0.4 --
2019-11-12 00:00:00 -- 14 Oeste 23 Noroeste 0 894.5 -0.2 --
2019-11-11 23:00:00 -- 9 Noroeste 32 Noroeste 0 894.7 0.4 --
2019-11-11 22:00:00 -- 9 Noroeste 27 Noroeste 0 894.7 0.8 --
2019-11-11 21:00:00 -- 10 Noroeste 24 Noroeste 0 894.7 1.1 --
2019-11-11 20:00:00 -- 15 Noroeste 25 Noroeste 0 894.3 1 --
2019-11-11 19:00:00 -- 5 Oeste 22 Noroeste 0 893.9 1.1 --
2019-11-11 18:00:00 -- 9 Oeste 28 Noroeste 0 893.6 1.2 --
2019-11-11 17:00:00 -- 11 Norte 48 Norte 0 893.3 0.9 --
2019-11-11 16:00:00 -- 27 Norte 60 Noroeste 0 892.8 -0.3 --
2019-11-11 15:00:00 -- 30 Noroeste 55 Norte 0 892.4 -0.7 --
2019-11-11 14:00:00 -- 17 Oeste 31 Noroeste 0.4 892.4 -1.1 --
2019-11-11 13:00:00 -- 10 Oeste 18 Noroeste 0 893.1 -0.2 --
2019-11-11 12:00:00 -- 8 Noroeste 14 Oeste 0.2 893.1 -0.2 --
2019-11-11 11:00:00 -- 4 Noroeste 12 Norte 0.2 893.5 0.6 --
2019-11-11 10:00:00 -- 7 Oeste 14 Noroeste 0 893.3 0.1 --
2019-11-11 09:00:00 -- 10 Oeste 19 Oeste 0 893.3 -0.1 --
2019-11-11 08:00:00 -- 4 Noroeste 7 Noroeste 0 892.9 -0.5 --
2019-11-11 07:00:00 -- 3 Noroeste 13 Norte 0 893.2 -0.7 --
2019-11-11 06:00:00 -- 4 Oeste 14 Oeste 0 893.4 -0.4 --
2019-11-11 05:00:00 -- 8 Oeste 14 Oeste 0 893.4 -1 --
2019-11-11 04:00:00 -- 9 Oeste 19 Oeste 0 893.9 -0.7 --
2019-11-11 03:00:00 -- 10 Oeste 17 Oeste 0 893.8 -0.6 --
2019-11-11 02:00:00 -- 8 Noroeste 15 Oeste 0 894.4 -0.3 --
2019-11-11 01:00:00 -- 5 Oeste 13 Noroeste 0.2 894.6 0.7 --
2019-11-11 00:00:00 -- 7 Noroeste 24 Noroeste 0.4 894.4 0.5 --